East Wenona, Illinois
Current Conditions -  °F | °C
As of 2:55 PM on Saturday 25 Oct 2014 (Local Time) from KC75 Reporting Station
Scattered Clouds Scattered Clouds  
Wind Chill: 23°   Ceiling: Unl
Heat Index: 23°   Visibility: 10mi
Dew Point:   Wind: 13mph
Humidity: 26%   Direction: 310°NW
Pressure: 29.98"   Gusts: 17mph
Location:  41.0632°N, 89.0208°W
Report Text: KC75 251955Z AUTO 31011G15KT 10SM SCT110 23/02 A2998 RMK AO2 T02280023
Loading
Personal Weather Stations






























Interactive Weather Map
Tropical Storm Tracking
New forecast layout! Learn more

10-Day Weather Forecast

Advertisements
Track Severe Weather on mobile